sensor_id;sensor_type;location;lat;lon;timestamp;P1;durP1;ratioP1;P2;durP2;ratioP2
4808;SDS011;2418;49.930;8.606;2022-10-18T00:00:40;16.47;;;7.47;;
4808;SDS011;2418;49.930;8.606;2022-10-18T00:03:06;15.10;;;6.73;;
4808;SDS011;2418;49.930;8.606;2022-10-18T00:05:31;9.15;;;7.22;;
4808;SDS011;2418;49.930;8.606;2022-10-18T00:07:57;19.42;;;7.22;;
4808;SDS011;2418;49.930;8.606;2022-10-18T00:10:23;11.45;;;7.18;;
4808;SDS011;2418;49.930;8.606;2022-10-18T00:12:49;18.67;;;7.70;;
4808;SDS011;2418;49.930;8.606;2022-10-18T00:15:14;19.73;;;8.10;;
4808;SDS011;2418;49.930;8.606;2022-10-18T00:17:41;12.80;;;7.43;;
4808;SDS011;2418;49.930;8.606;2022-10-18T00:20:07;18.50;;;8.00;;
4808;SDS011;2418;49.930;8.606;2022-10-18T00:22:34;11.65;;;7.00;;
4808;SDS011;2418;49.930;8.606;2022-10-18T00:25:04;16.23;;;7.10;;
4808;SDS011;2418;49.930;8.606;2022-10-18T00:27:31;10.97;;;7.93;;
4808;SDS011;2418;49.930;8.606;2022-10-18T00:29:57;20.38;;;7.35;;
4808;SDS011;2418;49.930;8.606;2022-10-18T00:32:23;15.30;;;8.20;;
4808;SDS011;2418;49.930;8.606;2022-10-18T00:34:49;17.17;;;7.40;;
4808;SDS011;2418;49.930;8.606;2022-10-18T00:37:14;22.70;;;7.60;;
4808;SDS011;2418;49.930;8.606;2022-10-18T00:39:40;14.82;;;7.80;;
4808;SDS011;2418;49.930;8.606;2022-10-18T00:42:06;15.30;;;7.78;;
4808;SDS011;2418;49.930;8.606;2022-10-18T00:47:00;15.40;;;7.40;;
4808;SDS011;2418;49.930;8.606;2022-10-18T00:49:32;19.83;;;7.90;;
4808;SDS011;2418;49.930;8.606;2022-10-18T00:52:08;14.38;;;7.35;;
4808;SDS011;2418;49.930;8.606;2022-10-18T00:54:43;18.00;;;7.97;;
4808;SDS011;2418;49.930;8.606;2022-10-18T00:57:10;14.25;;;7.15;;
4808;SDS011;2418;49.930;8.606;2022-10-18T00:59:37;12.35;;;7.38;;
4808;SDS011;2418;49.930;8.606;2022-10-18T01:02:04;21.13;;;8.07;;
4808;SDS011;2418;49.930;8.606;2022-10-18T01:04:30;18.77;;;6.90;;
4808;SDS011;2418;49.930;8.606;2022-10-18T01:06:58;21.63;;;7.40;;
4808;SDS011;2418;49.930;8.606;2022-10-18T01:15:41;21.85;;;7.55;;
4808;SDS011;2418;49.930;8.606;2022-10-18T01:21:12;19.98;;;7.70;;
4808;SDS011;2418;49.930;8.606;2022-10-18T01:24:24;14.77;;;8.07;;
4808;SDS011;2418;49.930;8.606;2022-10-18T01:29:54;15.27;;;8.20;;
4808;SDS011;2418;49.930;8.606;2022-10-18T01:32:46;16.02;;;8.00;;
4808;SDS011;2418;49.930;8.606;2022-10-18T01:35:17;26.00;;;8.20;;
4808;SDS011;2418;49.930;8.606;2022-10-18T01:37:51;19.10;;;7.65;;
4808;SDS011;2418;49.930;8.606;2022-10-18T01:40:20;18.42;;;8.07;;
4808;SDS011;2418;49.930;8.606;2022-10-18T01:42:47;15.70;;;8.43;;
4808;SDS011;2418;49.930;8.606;2022-10-18T01:45:14;13.73;;;8.27;;
4808;SDS011;2418;49.930;8.606;2022-10-18T01:47:41;19.63;;;7.50;;
4808;SDS011;2418;49.930;8.606;2022-10-18T01:50:09;16.23;;;8.13;;
4808;SDS011;2418;49.930;8.606;2022-10-18T01:52:35;21.88;;;8.82;;
4808;SDS011;2418;49.930;8.606;2022-10-18T01:55:10;18.17;;;10.50;;
4808;SDS011;2418;49.930;8.606;2022-10-18T01:57:38;26.88;;;11.75;;
4808;SDS011;2418;49.930;8.606;2022-10-18T02:00:45;33.33;;;14.65;;
4808;SDS011;2418;49.930;8.606;2022-10-18T02:03:20;40.03;;;19.98;;
4808;SDS011;2418;49.930;8.606;2022-10-18T02:05:53;58.40;;;28.57;;
4808;SDS011;2418;49.930;8.606;2022-10-18T02:13:35;60.97;;;32.17;;
4808;SDS011;2418;49.930;8.606;2022-10-18T02:16:09;66.22;;;32.13;;
4808;SDS011;2418;49.930;8.606;2022-10-18T02:18:40;56.42;;;32.30;;
4808;SDS011;2418;49.930;8.606;2022-10-18T02:21:11;66.90;;;31.63;;
4808;SDS011;2418;49.930;8.606;2022-10-18T02:23:39;64.47;;;32.10;;
4808;SDS011;2418;49.930;8.606;2022-10-18T02:26:07;76.13;;;34.23;;
4808;SDS011;2418;49.930;8.606;2022-10-18T02:28:32;72.03;;;34.53;;
4808;SDS011;2418;49.930;8.606;2022-10-18T02:33:56;70.18;;;33.40;;
4808;SDS011;2418;49.930;8.606;2022-10-18T02:36:36;60.33;;;32.90;;
4808;SDS011;2418;49.930;8.606;2022-10-18T02:39:15;56.92;;;27.70;;
4808;SDS011;2418;49.930;8.606;2022-10-18T02:41:44;47.55;;;23.45;;
4808;SDS011;2418;49.930;8.606;2022-10-18T02:44:10;39.33;;;20.30;;
4808;SDS011;2418;49.930;8.606;2022-10-18T02:46:36;52.93;;;22.50;;
4808;SDS011;2418;49.930;8.606;2022-10-18T02:49:02;38.15;;;16.95;;
4808;SDS011;2418;49.930;8.606;2022-10-18T02:51:28;26.85;;;16.17;;
4808;SDS011;2418;49.930;8.606;2022-10-18T02:53:53;19.13;;;12.07;;
4808;SDS011;2418;49.930;8.606;2022-10-18T02:56:19;20.10;;;12.50;;
4808;SDS011;2418;49.930;8.606;2022-10-18T02:58:44;22.00;;;13.40;;
4808;SDS011;2418;49.930;8.606;2022-10-18T03:01:10;28.23;;;13.00;;
4808;SDS011;2418;49.930;8.606;2022-10-18T03:03:35;22.75;;;12.60;;
4808;SDS011;2418;49.930;8.606;2022-10-18T03:06:01;23.57;;;12.80;;
4808;SDS011;2418;49.930;8.606;2022-10-18T03:08:26;32.47;;;11.80;;
4808;SDS011;2418;49.930;8.606;2022-10-18T03:10:52;21.83;;;12.23;;
4808;SDS011;2418;49.930;8.606;2022-10-18T03:13:17;20.85;;;11.48;;
4808;SDS011;2418;49.930;8.606;2022-10-18T03:15:43;20.90;;;10.40;;
4808;SDS011;2418;49.930;8.606;2022-10-18T03:18:08;16.40;;;10.03;;
4808;SDS011;2418;49.930;8.606;2022-10-18T03:20:35;17.30;;;9.67;;
4808;SDS011;2418;49.930;8.606;2022-10-18T03:23:00;20.63;;;10.43;;
4808;SDS011;2418;49.930;8.606;2022-10-18T03:25:27;14.50;;;10.30;;
4808;SDS011;2418;49.930;8.606;2022-10-18T03:27:52;15.90;;;9.90;;
4808;SDS011;2418;49.930;8.606;2022-10-18T03:30:18;13.80;;;10.70;;
4808;SDS011;2418;49.930;8.606;2022-10-18T03:32:43;23.48;;;11.00;;
4808;SDS011;2418;49.930;8.606;2022-10-18T03:35:09;15.47;;;10.33;;
4808;SDS011;2418;49.930;8.606;2022-10-18T03:37:35;19.30;;;10.57;;
4808;SDS011;2418;49.930;8.606;2022-10-18T03:40:01;21.33;;;11.65;;
4808;SDS011;2418;49.930;8.606;2022-10-18T03:42:27;24.52;;;12.52;;
4808;SDS011;2418;49.930;8.606;2022-10-18T03:44:52;23.27;;;13.10;;
4808;SDS011;2418;49.930;8.606;2022-10-18T03:47:18;24.02;;;14.48;;
4808;SDS011;2418;49.930;8.606;2022-10-18T03:49:43;18.05;;;13.73;;
4808;SDS011;2418;49.930;8.606;2022-10-18T03:52:09;25.30;;;15.07;;
4808;SDS011;2418;49.930;8.606;2022-10-18T03:54:34;30.67;;;15.63;;
4808;SDS011;2418;49.930;8.606;2022-10-18T03:57:00;22.80;;;15.50;;
4808;SDS011;2418;49.930;8.606;2022-10-18T03:59:26;34.53;;;16.45;;
4808;SDS011;2418;49.930;8.606;2022-10-18T04:01:52;26.50;;;16.48;;
4808;SDS011;2418;49.930;8.606;2022-10-18T04:04:17;25.40;;;17.67;;
4808;SDS011;2418;49.930;8.606;2022-10-18T04:06:43;23.45;;;17.63;;
4808;SDS011;2418;49.930;8.606;2022-10-18T04:09:09;35.03;;;19.83;;
4808;SDS011;2418;49.930;8.606;2022-10-18T04:11:34;29.23;;;17.20;;
4808;SDS011;2418;49.930;8.606;2022-10-18T04:14:00;25.05;;;15.65;;
4808;SDS011;2418;49.930;8.606;2022-10-18T04:16:26;27.50;;;16.65;;
4808;SDS011;2418;49.930;8.606;2022-10-18T04:18:52;29.60;;;16.95;;
4808;SDS011;2418;49.930;8.606;2022-10-18T04:21:17;34.13;;;17.20;;
4808;SDS011;2418;49.930;8.606;2022-10-18T04:23:45;26.95;;;16.75;;
4808;SDS011;2418;49.930;8.606;2022-10-18T04:26:11;23.90;;;15.77;;
4808;SDS011;2418;49.930;8.606;2022-10-18T04:28:37;25.87;;;16.30;;
4808;SDS011;2418;49.930;8.606;2022-10-18T04:31:03;26.60;;;17.20;;
4808;SDS011;2418;49.930;8.606;2022-10-18T04:33:30;21.10;;;16.30;;
4808;SDS011;2418;49.930;8.606;2022-10-18T04:35:56;28.05;;;16.88;;
4808;SDS011;2418;49.930;8.606;2022-10-18T04:38:22;34.85;;;17.40;;
4808;SDS011;2418;49.930;8.606;2022-10-18T04:40:47;27.50;;;17.40;;
4808;SDS011;2418;49.930;8.606;2022-10-18T04:43:13;19.95;;;16.27;;
4808;SDS011;2418;49.930;8.606;2022-10-18T04:45:39;32.22;;;16.88;;
4808;SDS011;2418;49.930;8.606;2022-10-18T04:48:04;22.30;;;16.40;;
4808;SDS011;2418;49.930;8.606;2022-10-18T04:50:30;51.55;;;17.67;;
4808;SDS011;2418;49.930;8.606;2022-10-18T04:52:56;25.97;;;18.43;;
4808;SDS011;2418;49.930;8.606;2022-10-18T04:55:21;24.77;;;17.87;;
4808;SDS011;2418;49.930;8.606;2022-10-18T04:57:47;34.63;;;16.45;;
4808;SDS011;2418;49.930;8.606;2022-10-18T05:00:12;26.95;;;17.50;;
4808;SDS011;2418;49.930;8.606;2022-10-18T05:02:38;24.90;;;18.70;;
4808;SDS011;2418;49.930;8.606;2022-10-18T05:05:04;29.10;;;18.48;;
4808;SDS011;2418;49.930;8.606;2022-10-18T05:07:29;38.80;;;19.58;;
4808;SDS011;2418;49.930;8.606;2022-10-18T05:09:55;25.70;;;18.50;;
4808;SDS011;2418;49.930;8.606;2022-10-18T05:12:21;34.30;;;19.43;;
4808;SDS011;2418;49.930;8.606;2022-10-18T05:14:46;30.10;;;19.40;;
4808;SDS011;2418;49.930;8.606;2022-10-18T05:17:12;31.70;;;20.75;;
4808;SDS011;2418;49.930;8.606;2022-10-18T05:19:38;32.90;;;20.97;;
4808;SDS011;2418;49.930;8.606;2022-10-18T05:22:03;33.17;;;22.00;;
4808;SDS011;2418;49.930;8.606;2022-10-18T05:24:29;33.20;;;22.85;;
4808;SDS011;2418;49.930;8.606;2022-10-18T05:26:55;38.13;;;22.30;;
4808;SDS011;2418;49.930;8.606;2022-10-18T05:29:21;38.42;;;22.20;;
4808;SDS011;2418;49.930;8.606;2022-10-18T05:31:47;38.15;;;22.25;;
4808;SDS011;2418;49.930;8.606;2022-10-18T05:34:13;35.80;;;22.00;;
4808;SDS011;2418;49.930;8.606;2022-10-18T05:36:38;33.60;;;22.10;;
4808;SDS011;2418;49.930;8.606;2022-10-18T05:39:04;34.28;;;21.98;;
4808;SDS011;2418;49.930;8.606;2022-10-18T05:41:29;36.15;;;21.10;;
4808;SDS011;2418;49.930;8.606;2022-10-18T05:43:55;27.88;;;19.48;;
4808;SDS011;2418;49.930;8.606;2022-10-18T05:46:21;34.03;;;21.05;;
4808;SDS011;2418;49.930;8.606;2022-10-18T05:48:49;46.83;;;21.00;;
4808;SDS011;2418;49.930;8.606;2022-10-18T05:51:16;29.10;;;20.08;;
4808;SDS011;2418;49.930;8.606;2022-10-18T05:53:42;34.85;;;20.13;;
4808;SDS011;2418;49.930;8.606;2022-10-18T05:56:08;32.15;;;19.10;;
4808;SDS011;2418;49.930;8.606;2022-10-18T05:58:35;35.42;;;19.55;;
4808;SDS011;2418;49.930;8.606;2022-10-18T06:01:01;34.63;;;21.27;;
4808;SDS011;2418;49.930;8.606;2022-10-18T06:03:28;31.33;;;20.17;;
4808;SDS011;2418;49.930;8.606;2022-10-18T06:08:30;25.00;;;19.40;;
4808;SDS011;2418;49.930;8.606;2022-10-18T06:10:55;31.38;;;19.40;;
4808;SDS011;2418;49.930;8.606;2022-10-18T06:13:21;28.08;;;20.40;;
4808;SDS011;2418;49.930;8.606;2022-10-18T06:15:47;32.33;;;20.90;;
4808;SDS011;2418;49.930;8.606;2022-10-18T06:18:12;36.67;;;21.38;;
4808;SDS011;2418;49.930;8.606;2022-10-18T06:20:38;31.90;;;21.50;;
4808;SDS011;2418;49.930;8.606;2022-10-18T06:23:03;27.90;;;21.17;;
4808;SDS011;2418;49.930;8.606;2022-10-18T06:25:29;38.53;;;20.93;;
4808;SDS011;2418;49.930;8.606;2022-10-18T06:27:54;34.17;;;20.55;;
4808;SDS011;2418;49.930;8.606;2022-10-18T06:30:20;34.23;;;20.37;;
4808;SDS011;2418;49.930;8.606;2022-10-18T06:32:45;30.30;;;20.50;;
4808;SDS011;2418;49.930;8.606;2022-10-18T06:35:11;29.30;;;21.10;;
4808;SDS011;2418;49.930;8.606;2022-10-18T06:37:36;29.38;;;20.48;;
4808;SDS011;2418;49.930;8.606;2022-10-18T06:40:03;30.52;;;20.67;;
4808;SDS011;2418;49.930;8.606;2022-10-18T06:42:29;33.70;;;20.08;;
4808;SDS011;2418;49.930;8.606;2022-10-18T06:44:55;36.47;;;20.88;;
4808;SDS011;2418;49.930;8.606;2022-10-18T06:47:21;26.50;;;19.50;;
4808;SDS011;2418;49.930;8.606;2022-10-18T06:49:47;28.40;;;19.17;;
4808;SDS011;2418;49.930;8.606;2022-10-18T06:52:12;35.20;;;20.50;;
4808;SDS011;2418;49.930;8.606;2022-10-18T06:54:40;24.00;;;19.90;;
4808;SDS011;2418;49.930;8.606;2022-10-18T06:57:06;33.30;;;21.13;;
4808;SDS011;2418;49.930;8.606;2022-10-18T06:59:31;34.73;;;21.10;;
4808;SDS011;2418;49.930;8.606;2022-10-18T07:01:57;30.20;;;19.65;;
4808;SDS011;2418;49.930;8.606;2022-10-18T07:04:22;37.90;;;21.20;;
4808;SDS011;2418;49.930;8.606;2022-10-18T07:06:48;41.10;;;21.77;;
4808;SDS011;2418;49.930;8.606;2022-10-18T07:09:13;32.60;;;22.55;;
4808;SDS011;2418;49.930;8.606;2022-10-18T07:11:39;37.10;;;21.23;;
4808;SDS011;2418;49.930;8.606;2022-10-18T07:14:04;37.83;;;23.08;;
4808;SDS011;2418;49.930;8.606;2022-10-18T07:16:30;29.53;;;20.83;;
4808;SDS011;2418;49.930;8.606;2022-10-18T07:18:57;38.63;;;21.70;;
4808;SDS011;2418;49.930;8.606;2022-10-18T07:21:24;37.20;;;21.10;;
4808;SDS011;2418;49.930;8.606;2022-10-18T07:23:50;28.85;;;21.13;;
4808;SDS011;2418;49.930;8.606;2022-10-18T07:28:46;40.63;;;22.40;;
4808;SDS011;2418;49.930;8.606;2022-10-18T07:31:14;41.42;;;21.40;;
4808;SDS011;2418;49.930;8.606;2022-10-18T07:33:40;35.93;;;22.07;;
4808;SDS011;2418;49.930;8.606;2022-10-18T07:36:09;41.13;;;22.33;;
4808;SDS011;2418;49.930;8.606;2022-10-18T07:38:36;34.20;;;20.10;;
4808;SDS011;2418;49.930;8.606;2022-10-18T07:41:03;33.47;;;20.97;;
4808;SDS011;2418;49.930;8.606;2022-10-18T07:43:30;27.23;;;19.08;;
4808;SDS011;2418;49.930;8.606;2022-10-18T07:45:57;28.95;;;18.88;;
4808;SDS011;2418;49.930;8.606;2022-10-18T07:48:25;23.58;;;17.90;;
4808;SDS011;2418;49.930;8.606;2022-10-18T07:50:51;21.02;;;18.25;;
4808;SDS011;2418;49.930;8.606;2022-10-18T07:53:17;23.33;;;17.63;;
4808;SDS011;2418;49.930;8.606;2022-10-18T07:55:43;23.50;;;18.00;;
4808;SDS011;2418;49.930;8.606;2022-10-18T07:58:09;25.50;;;18.03;;
4808;SDS011;2418;49.930;8.606;2022-10-18T08:00:34;20.25;;;16.65;;
4808;SDS011;2418;49.930;8.606;2022-10-18T08:03:00;23.10;;;16.97;;
4808;SDS011;2418;49.930;8.606;2022-10-18T08:05:26;24.53;;;17.10;;
4808;SDS011;2418;49.930;8.606;2022-10-18T08:07:52;19.07;;;15.30;;
4808;SDS011;2418;49.930;8.606;2022-10-18T08:10:18;22.13;;;14.80;;
4808;SDS011;2418;49.930;8.606;2022-10-18T08:12:44;17.13;;;14.63;;
4808;SDS011;2418;49.930;8.606;2022-10-18T08:15:10;16.10;;;14.50;;
4808;SDS011;2418;49.930;8.606;2022-10-18T08:17:36;16.53;;;13.37;;
4808;SDS011;2418;49.930;8.606;2022-10-18T08:20:01;15.80;;;13.30;;
4808;SDS011;2418;49.930;8.606;2022-10-18T08:22:27;14.57;;;13.25;;
4808;SDS011;2418;49.930;8.606;2022-10-18T08:24:53;14.10;;;12.80;;
4808;SDS011;2418;49.930;8.606;2022-10-18T08:27:18;16.23;;;12.60;;
4808;SDS011;2418;49.930;8.606;2022-10-18T08:29:44;14.93;;;12.68;;
4808;SDS011;2418;49.930;8.606;2022-10-18T08:32:10;13.50;;;12.10;;
4808;SDS011;2418;49.930;8.606;2022-10-18T08:34:36;15.30;;;13.30;;
4808;SDS011;2418;49.930;8.606;2022-10-18T08:37:02;17.30;;;13.10;;
4808;SDS011;2418;49.930;8.606;2022-10-18T08:39:28;14.65;;;12.38;;
4808;SDS011;2418;49.930;8.606;2022-10-18T08:44:26;15.33;;;13.00;;
4808;SDS011;2418;49.930;8.606;2022-10-18T08:46:59;15.00;;;12.70;;
4808;SDS011;2418;49.930;8.606;2022-10-18T08:52:30;18.27;;;15.05;;
4808;SDS011;2418;49.930;8.606;2022-10-18T08:57:53;15.57;;;13.80;;
4808;SDS011;2418;49.930;8.606;2022-10-18T09:00:26;15.65;;;13.90;;
4808;SDS011;2418;49.930;8.606;2022-10-18T09:03:02;14.63;;;13.23;;
4808;SDS011;2418;49.930;8.606;2022-10-18T09:05:50;13.18;;;12.07;;
4808;SDS011;2418;49.930;8.606;2022-10-18T09:10:55;15.02;;;13.25;;
4808;SDS011;2418;49.930;8.606;2022-10-18T09:19:20;18.95;;;16.50;;
4808;SDS011;2418;49.930;8.606;2022-10-18T09:21:51;19.40;;;15.35;;
4808;SDS011;2418;49.930;8.606;2022-10-18T09:24:20;20.80;;;15.70;;
4808;SDS011;2418;49.930;8.606;2022-10-18T09:27:21;15.60;;;13.60;;
4808;SDS011;2418;49.930;8.606;2022-10-18T09:32:50;10.98;;;9.88;;
4808;SDS011;2418;49.930;8.606;2022-10-18T09:35:59;14.48;;;11.02;;
4808;SDS011;2418;49.930;8.606;2022-10-18T09:38:20;12.73;;;10.68;;
4808;SDS011;2418;49.930;8.606;2022-10-18T09:40:53;11.20;;;9.60;;
4808;SDS011;2418;49.930;8.606;2022-10-18T09:43:24;9.70;;;8.90;;
4808;SDS011;2418;49.930;8.606;2022-10-18T09:45:56;9.77;;;8.98;;
4808;SDS011;2418;49.930;8.606;2022-10-18T09:58:24;7.75;;;4.07;;
4808;SDS011;2418;49.930;8.606;2022-10-18T10:00:53;3.20;;;3.10;;
4808;SDS011;2418;49.930;8.606;2022-10-18T10:03:19;3.63;;;2.80;;
4808;SDS011;2418;49.930;8.606;2022-10-18T10:05:45;2.53;;;2.37;;
4808;SDS011;2418;49.930;8.606;2022-10-18T10:08:11;3.50;;;2.67;;
4808;SDS011;2418;49.930;8.606;2022-10-18T10:10:40;4.25;;;2.95;;
4808;SDS011;2418;49.930;8.606;2022-10-18T10:13:15;2.80;;;2.70;;
4808;SDS011;2418;49.930;8.606;2022-10-18T10:16:04;1.70;;;1.70;;
4808;SDS011;2418;49.930;8.606;2022-10-18T10:18:31;3.00;;;2.90;;
4808;SDS011;2418;49.930;8.606;2022-10-18T10:21:00;3.20;;;2.90;;
4808;SDS011;2418;49.930;8.606;2022-10-18T10:26:00;3.17;;;2.97;;
4808;SDS011;2418;49.930;8.606;2022-10-18T10:28:29;3.60;;;2.20;;
4808;SDS011;2418;49.930;8.606;2022-10-18T10:33:58;3.38;;;2.38;;
4808;SDS011;2418;49.930;8.606;2022-10-18T10:36:29;2.28;;;2.10;;
4808;SDS011;2418;49.930;8.606;2022-10-18T10:39:12;2.45;;;2.35;;
4808;SDS011;2418;49.930;8.606;2022-10-18T10:41:48;2.70;;;2.60;;
4808;SDS011;2418;49.930;8.606;2022-10-18T10:44:20;2.70;;;2.55;;
4808;SDS011;2418;49.930;8.606;2022-10-18T10:46:48;3.90;;;2.72;;
4808;SDS011;2418;49.930;8.606;2022-10-18T10:49:41;7.15;;;2.53;;
4808;SDS011;2418;49.930;8.606;2022-10-18T10:52:08;2.30;;;2.20;;
4808;SDS011;2418;49.930;8.606;2022-10-18T10:54:45;3.70;;;2.00;;
4808;SDS011;2418;49.930;8.606;2022-10-18T10:59:47;1.42;;;1.38;;
4808;SDS011;2418;49.930;8.606;2022-10-18T11:04:45;2.40;;;1.30;;
4808;SDS011;2418;49.930;8.606;2022-10-18T11:07:26;2.40;;;1.45;;
4808;SDS011;2418;49.930;8.606;2022-10-18T11:10:15;2.65;;;1.00;;
4808;SDS011;2418;49.930;8.606;2022-10-18T11:15:38;2.03;;;1.23;;
4808;SDS011;2418;49.930;8.606;2022-10-18T11:20:44;1.00;;;0.90;;
4808;SDS011;2418;49.930;8.606;2022-10-18T11:23:15;1.90;;;0.90;;
4808;SDS011;2418;49.930;8.606;2022-10-18T11:25:48;0.90;;;0.90;;
4808;SDS011;2418;49.930;8.606;2022-10-18T11:34:03;2.30;;;1.27;;
4808;SDS011;2418;49.930;8.606;2022-10-18T11:45:37;1.20;;;1.20;;
4808;SDS011;2418;49.930;8.606;2022-10-18T11:56:29;1.40;;;0.93;;
4808;SDS011;2418;49.930;8.606;2022-10-18T11:59:19;0.80;;;0.80;;
4808;SDS011;2418;49.930;8.606;2022-10-18T12:04:43;2.60;;;0.70;;
4808;SDS011;2418;49.930;8.606;2022-10-18T12:07:16;1.40;;;0.80;;
4808;SDS011;2418;49.930;8.606;2022-10-18T12:09:44;1.30;;;1.10;;
4808;SDS011;2418;49.930;8.606;2022-10-18T12:12:21;1.58;;;0.60;;
4808;SDS011;2418;49.930;8.606;2022-10-18T12:14:58;0.75;;;0.70;;
4808;SDS011;2418;49.930;8.606;2022-10-18T12:17:30;0.50;;;0.50;;
4808;SDS011;2418;49.930;8.606;2022-10-18T12:20:06;1.70;;;0.60;;
4808;SDS011;2418;49.930;8.606;2022-10-18T12:22:39;0.80;;;0.80;;
4808;SDS011;2418;49.930;8.606;2022-10-18T12:25:11;2.55;;;0.60;;
4808;SDS011;2418;49.930;8.606;2022-10-18T12:27:40;0.70;;;0.70;;
4808;SDS011;2418;49.930;8.606;2022-10-18T12:31:00;1.67;;;0.90;;
4808;SDS011;2418;49.930;8.606;2022-10-18T12:33:06;1.20;;;0.55;;
4808;SDS011;2418;49.930;8.606;2022-10-18T12:38:39;5.40;;;0.88;;
4808;SDS011;2418;49.930;8.606;2022-10-18T12:41:10;2.15;;;0.70;;
4808;SDS011;2418;49.930;8.606;2022-10-18T12:43:49;0.65;;;0.60;;
4808;SDS011;2418;49.930;8.606;2022-10-18T12:46:16;3.78;;;0.60;;
4808;SDS011;2418;49.930;8.606;2022-10-18T12:48:43;1.90;;;0.60;;
4808;SDS011;2418;49.930;8.606;2022-10-18T12:53:39;1.80;;;0.60;;
4808;SDS011;2418;49.930;8.606;2022-10-18T13:09:21;1.70;;;0.70;;
4808;SDS011;2418;49.930;8.606;2022-10-18T13:11:48;2.60;;;0.60;;
4808;SDS011;2418;49.930;8.606;2022-10-18T13:14:27;0.80;;;0.80;;
4808;SDS011;2418;49.930;8.606;2022-10-18T13:20:06;1.50;;;0.57;;
4808;SDS011;2418;49.930;8.606;2022-10-18T13:28:21;0.60;;;0.60;;
4808;SDS011;2418;49.930;8.606;2022-10-18T13:31:34;0.90;;;0.60;;
4808;SDS011;2418;49.930;8.606;2022-10-18T13:37:05;0.60;;;0.60;;
4808;SDS011;2418;49.930;8.606;2022-10-18T13:39:44;2.20;;;0.80;;
4808;SDS011;2418;49.930;8.606;2022-10-18T13:44:39;5.38;;;0.80;;
4808;SDS011;2418;49.930;8.606;2022-10-18T13:47:08;2.20;;;0.60;;
4808;SDS011;2418;49.930;8.606;2022-10-18T13:49:43;1.30;;;0.60;;
4808;SDS011;2418;49.930;8.606;2022-10-18T13:52:39;3.70;;;1.10;;
4808;SDS011;2418;49.930;8.606;2022-10-18T14:06:35;6.40;;;1.00;;
4808;SDS011;2418;49.930;8.606;2022-10-18T14:09:07;0.80;;;0.80;;
4808;SDS011;2418;49.930;8.606;2022-10-18T14:14:42;2.67;;;0.95;;
4808;SDS011;2418;49.930;8.606;2022-10-18T14:17:47;3.40;;;1.00;;
4808;SDS011;2418;49.930;8.606;2022-10-18T14:22:52;1.00;;;1.00;;
4808;SDS011;2418;49.930;8.606;2022-10-18T14:25:37;1.40;;;1.30;;
4808;SDS011;2418;49.930;8.606;2022-10-18T14:30:37;2.00;;;0.98;;
4808;SDS011;2418;49.930;8.606;2022-10-18T14:33:37;0.98;;;0.98;;
4808;SDS011;2418;49.930;8.606;2022-10-18T14:36:12;0.90;;;0.90;;
4808;SDS011;2418;49.930;8.606;2022-10-18T14:38:49;1.85;;;0.77;;
4808;SDS011;2418;49.930;8.606;2022-10-18T14:41:20;0.90;;;0.80;;
4808;SDS011;2418;49.930;8.606;2022-10-18T14:43:46;1.47;;;1.47;;
4808;SDS011;2418;49.930;8.606;2022-10-18T14:46:17;1.50;;;0.90;;
4808;SDS011;2418;49.930;8.606;2022-10-18T14:48:54;1.30;;;0.93;;
4808;SDS011;2418;49.930;8.606;2022-10-18T14:51:20;1.30;;;1.20;;
4808;SDS011;2418;49.930;8.606;2022-10-18T14:53:46;3.63;;;1.70;;
4808;SDS011;2418;49.930;8.606;2022-10-18T14:56:22;2.10;;;1.30;;
4808;SDS011;2418;49.930;8.606;2022-10-18T14:58:56;2.20;;;1.05;;
4808;SDS011;2418;49.930;8.606;2022-10-18T15:01:26;1.20;;;1.10;;
4808;SDS011;2418;49.930;8.606;2022-10-18T15:03:58;1.50;;;1.27;;
4808;SDS011;2418;49.930;8.606;2022-10-18T15:06:26;1.20;;;1.20;;
4808;SDS011;2418;49.930;8.606;2022-10-18T15:08:53;1.67;;;1.50;;
4808;SDS011;2418;49.930;8.606;2022-10-18T15:11:21;1.30;;;1.20;;
4808;SDS011;2418;49.930;8.606;2022-10-18T15:14:02;1.70;;;1.00;;
4808;SDS011;2418;49.930;8.606;2022-10-18T15:16:32;1.40;;;1.30;;
4808;SDS011;2418;49.930;8.606;2022-10-18T15:19:23;1.75;;;1.20;;
4808;SDS011;2418;49.930;8.606;2022-10-18T15:21:57;1.30;;;1.30;;
4808;SDS011;2418;49.930;8.606;2022-10-18T15:26:50;1.20;;;1.20;;
4808;SDS011;2418;49.930;8.606;2022-10-18T15:29:19;1.10;;;1.10;;
4808;SDS011;2418;49.930;8.606;2022-10-18T15:31:45;1.10;;;1.10;;
4808;SDS011;2418;49.930;8.606;2022-10-18T15:34:17;2.90;;;1.70;;
4808;SDS011;2418;49.930;8.606;2022-10-18T15:36:48;1.65;;;1.55;;
4808;SDS011;2418;49.930;8.606;2022-10-18T15:39:19;1.75;;;1.65;;
4808;SDS011;2418;49.930;8.606;2022-10-18T15:41:48;1.92;;;1.83;;
4808;SDS011;2418;49.930;8.606;2022-10-18T15:44:26;2.50;;;1.95;;
4808;SDS011;2418;49.930;8.606;2022-10-18T15:54:46;2.80;;;2.10;;
4808;SDS011;2418;49.930;8.606;2022-10-18T15:57:12;2.25;;;2.15;;
4808;SDS011;2418;49.930;8.606;2022-10-18T15:59:39;3.95;;;2.80;;
4808;SDS011;2418;49.930;8.606;2022-10-18T16:02:17;2.80;;;2.70;;
4808;SDS011;2418;49.930;8.606;2022-10-18T16:04:43;4.80;;;2.70;;
4808;SDS011;2418;49.930;8.606;2022-10-18T16:07:10;3.08;;;2.97;;
4808;SDS011;2418;49.930;8.606;2022-10-18T16:09:36;3.03;;;2.80;;
4808;SDS011;2418;49.930;8.606;2022-10-18T16:12:02;4.60;;;3.22;;
4808;SDS011;2418;49.930;8.606;2022-10-18T16:14:28;5.30;;;3.72;;
4808;SDS011;2418;49.930;8.606;2022-10-18T16:16:57;3.30;;;3.10;;
4808;SDS011;2418;49.930;8.606;2022-10-18T16:19:24;4.45;;;2.72;;
4808;SDS011;2418;49.930;8.606;2022-10-18T16:21:50;4.30;;;2.40;;
4808;SDS011;2418;49.930;8.606;2022-10-18T16:24:17;3.58;;;3.28;;
4808;SDS011;2418;49.930;8.606;2022-10-18T16:26:43;3.83;;;3.38;;
4808;SDS011;2418;49.930;8.606;2022-10-18T16:29:17;6.63;;;3.10;;
4808;SDS011;2418;49.930;8.606;2022-10-18T16:31:49;2.90;;;2.80;;
4808;SDS011;2418;49.930;8.606;2022-10-18T16:34:17;2.92;;;2.63;;
4808;SDS011;2418;49.930;8.606;2022-10-18T16:36:43;2.83;;;2.67;;
4808;SDS011;2418;49.930;8.606;2022-10-18T16:39:13;3.75;;;2.75;;
4808;SDS011;2418;49.930;8.606;2022-10-18T16:41:40;2.50;;;2.40;;
4808;SDS011;2418;49.930;8.606;2022-10-18T16:44:06;2.80;;;2.60;;
4808;SDS011;2418;49.930;8.606;2022-10-18T16:46:32;5.00;;;4.60;;
4808;SDS011;2418;49.930;8.606;2022-10-18T16:48:59;30.80;;;20.92;;
4808;SDS011;2418;49.930;8.606;2022-10-18T16:51:25;16.60;;;11.97;;
4808;SDS011;2418;49.930;8.606;2022-10-18T16:53:51;7.45;;;6.85;;
4808;SDS011;2418;49.930;8.606;2022-10-18T16:56:21;6.57;;;5.97;;
4808;SDS011;2418;49.930;8.606;2022-10-18T16:58:52;7.70;;;7.00;;
4808;SDS011;2418;49.930;8.606;2022-10-18T17:01:18;4.03;;;3.92;;
4808;SDS011;2418;49.930;8.606;2022-10-18T17:03:45;4.20;;;4.00;;
4808;SDS011;2418;49.930;8.606;2022-10-18T17:08:44;3.17;;;3.10;;
4808;SDS011;2418;49.930;8.606;2022-10-18T17:11:10;3.53;;;3.42;;
4808;SDS011;2418;49.930;8.606;2022-10-18T17:13:37;3.20;;;3.10;;
4808;SDS011;2418;49.930;8.606;2022-10-18T17:16:03;3.35;;;3.17;;
4808;SDS011;2418;49.930;8.606;2022-10-18T17:18:29;3.20;;;2.90;;
4808;SDS011;2418;49.930;8.606;2022-10-18T17:20:55;4.78;;;3.33;;
4808;SDS011;2418;49.930;8.606;2022-10-18T17:23:27;3.00;;;2.90;;
4808;SDS011;2418;49.930;8.606;2022-10-18T17:25:52;4.60;;;4.20;;
4808;SDS011;2418;49.930;8.606;2022-10-18T17:28:18;4.20;;;3.90;;
4808;SDS011;2418;49.930;8.606;2022-10-18T17:30:45;4.13;;;3.83;;
4808;SDS011;2418;49.930;8.606;2022-10-18T17:33:11;3.63;;;3.53;;
4808;SDS011;2418;49.930;8.606;2022-10-18T17:35:38;3.75;;;3.55;;
4808;SDS011;2418;49.930;8.606;2022-10-18T17:38:04;8.57;;;7.35;;
4808;SDS011;2418;49.930;8.606;2022-10-18T17:40:31;46.45;;;32.47;;
4808;SDS011;2418;49.930;8.606;2022-10-18T17:42:57;12.05;;;5.60;;
4808;SDS011;2418;49.930;8.606;2022-10-18T17:45:23;6.10;;;5.70;;
4808;SDS011;2418;49.930;8.606;2022-10-18T17:47:49;5.33;;;5.03;;
4808;SDS011;2418;49.930;8.606;2022-10-18T17:50:15;5.93;;;5.10;;
4808;SDS011;2418;49.930;8.606;2022-10-18T17:52:44;5.90;;;5.43;;
4808;SDS011;2418;49.930;8.606;2022-10-18T17:55:11;5.25;;;4.60;;
4808;SDS011;2418;49.930;8.606;2022-10-18T17:57:38;5.38;;;5.00;;